首页
METAR-TAF:

METAR-TAF

机场 :

圣加仑, 瑞士

纬度: 47-29-06N, 经度: 009-33-43E, 海拔: 398米

当前天气观测

该预报发布于36分钟前的18:20 UTC
风速2节,风向多变
温度 4°C
湿度 87%
气压 1028 hPa
能见度10公里或以上
少量云层高于5000英尺
多云层高于6000英尺

METAR: LSZR 181820Z VRB02KT 9999 FEW050 BKN060 04/02 Q1028 NOSIG RMK P

时间: 19:56 (18:56 UTC)

预报

该预报发布于4小时和31分钟前的14:25 UTC
预报有效从18日的 15点(UTC)到 18日的 24点(UTC)
风速8节,风向西转西北
能见度10公里或以上
少量云层高于5000英尺
多云层高于6000英尺
成为
从 18日的 17点(UTC)到 18日的 20点(UTC)
风速3节,风向多变
几率 40%
从 18日的 21点(UTC)到 18日的 24点(UTC)
能见度10公里或以上
1500米以下无云,无积雨云

TAF: LSZR 181425Z 1815/1824 30008KT 9999 FEW050 BKN060 BECMG 1817/1820 VRB03KT PROB40 1821/1824 CAVOK

超过4000个机场的气象观测和天气预报(METAR&TAF报告)。

可查询的气象台以黄色和红色小点在地图上表示。

将鼠标移到小点上方,可查看气象台名称。

然后点击查看天气观测和预报。

如需切换地图:点击带黑十字的绿色按钮放大地图;点击带横线的绿色按钮缩小地图;或者点击绿色箭头查看邻近地区的地图。


METAR-TAF: